Smyrna, North Carolina
Current Conditions -  °F | °C
As of 11:14 AM on Monday 24 Nov 2014 (Local Time) from KMRH Reporting Station
Haze Haze  
Wind Chill: 67°   Ceiling: 400
Heat Index: 67°   Visibility: 2.5mi
Dew Point: 66°   Wind: 10mph
Humidity: 97%   Direction: 230°SW
Pressure: 29.91"   Gusts: NA
Location:  34.76°N, 76.53°W
Report Text: KMRH 241614Z AUTO 23009KT 2 1/2SM BR OVC004 19/19 A2991 RMK AO2 T01940189 TSNO
Loading
Personal Weather Stations






























Interactive Weather Map New forecast layout! Learn more

10-Day Weather Forecast

Advertisements
Track Severe Weather on mobile